createdAt,value
2018-05-03T00:01:48.257Z,5.93
2018-05-03T00:04:15.873Z,5.60
2018-05-03T00:06:43.487Z,5.97
2018-05-03T00:09:11.105Z,5.40
2018-05-03T00:11:38.721Z,5.90
2018-05-03T00:14:06.293Z,6.23
2018-05-03T00:16:33.852Z,7.13
2018-05-03T00:19:01.421Z,6.57
2018-05-03T00:21:29.042Z,7.80
2018-05-03T00:23:56.653Z,7.60
2018-05-03T00:26:24.268Z,6.57
2018-05-03T00:28:51.828Z,6.80
2018-05-03T00:31:19.392Z,7.20
2018-05-03T00:33:47.013Z,7.23
2018-05-03T00:36:14.590Z,6.97
2018-05-03T00:38:42.151Z,6.10
2018-05-03T00:41:09.746Z,5.70
2018-05-03T00:43:37.354Z,5.40
2018-05-03T00:46:04.933Z,5.73
2018-05-03T00:48:32.488Z,5.90
2018-05-03T00:51:00.053Z,7.60
2018-05-03T00:53:27.677Z,5.43
2018-05-03T00:55:55.293Z,6.97
2018-05-03T00:58:22.904Z,5.77
2018-05-03T01:00:50.460Z,6.40
2018-05-03T01:03:18.020Z,6.67
2018-05-03T01:05:45.659Z,5.73
2018-05-03T01:08:13.227Z,7.03
2018-05-03T01:10:40.908Z,7.20
2018-05-03T01:13:08.469Z,6.57
2018-05-03T01:15:36.089Z,6.93
2018-05-03T01:18:03.713Z,6.73
2018-05-03T01:20:31.308Z,7.63
2018-05-03T01:22:58.937Z,6.77
2018-05-03T01:25:26.492Z,6.87
2018-05-03T01:27:54.108Z,7.17
2018-05-03T01:30:21.725Z,7.73
2018-05-03T01:32:49.349Z,9.73
2018-05-03T01:35:28.588Z,8.80
2018-05-03T01:37:56.148Z,9.73
2018-05-03T01:40:23.715Z,7.70
2018-05-03T01:42:51.284Z,8.57
2018-05-03T01:45:18.970Z,7.67
2018-05-03T01:47:46.528Z,6.63
2018-05-03T01:50:14.084Z,6.77
2018-05-03T01:52:41.653Z,7.10
2018-05-03T01:55:09.213Z,8.30
2018-05-03T01:57:36.780Z,9.90
2018-05-03T02:00:04.350Z,9.90
2018-05-03T02:02:32.040Z,8.23
2018-05-03T02:04:59.600Z,7.37
2018-05-03T02:07:27.216Z,7.33
2018-05-03T02:09:54.784Z,6.87
2018-05-03T02:12:22.344Z,7.03
2018-05-03T02:14:49.969Z,6.77
2018-05-03T02:17:17.513Z,7.60
2018-05-03T02:19:45.185Z,9.13
2018-05-03T02:22:12.829Z,8.90
2018-05-03T02:24:40.468Z,8.60
2018-05-03T02:27:08.096Z,7.70
2018-05-03T02:29:35.656Z,6.70
2018-05-03T02:32:03.287Z,7.87
2018-05-03T02:34:30.909Z,7.13
2018-05-03T02:36:58.589Z,6.77
2018-05-03T02:39:26.215Z,7.67
2018-05-03T02:41:53.842Z,6.13
2018-05-03T02:44:21.469Z,6.27
2018-05-03T02:46:49.029Z,7.97
2018-05-03T02:49:16.657Z,6.27
2018-05-03T02:51:44.287Z,5.93
2018-05-03T02:54:11.900Z,5.80
2018-05-03T02:56:39.517Z,6.67
2018-05-03T02:59:18.876Z,6.00
2018-05-03T03:01:58.094Z,6.40
2018-05-03T03:08:10.229Z,7.33
2018-05-03T03:14:21.723Z,7.00
2018-05-03T03:17:06.758Z,8.00
2018-05-03T03:19:55.557Z,7.30
2018-05-03T03:22:40.754Z,8.00
2018-05-03T03:28:36.661Z,7.47
2018-05-03T03:31:22.007Z,7.40
2018-05-03T03:34:01.478Z,8.60
2018-05-03T03:39:41.937Z,6.23
2018-05-03T03:42:21.341Z,7.40
2018-05-03T03:44:48.957Z,7.57
2018-05-03T03:47:16.518Z,6.63
2018-05-03T03:49:44.081Z,7.33
2018-05-03T03:52:11.647Z,6.47
2018-05-03T03:54:39.203Z,14.10
2018-05-03T03:57:06.768Z,9.87
2018-05-03T03:59:34.328Z,10.13
2018-05-03T04:02:02.033Z,8.70
2018-05-03T04:04:29.604Z,8.77
2018-05-03T04:06:57.165Z,8.13
2018-05-03T04:09:24.737Z,7.37
2018-05-03T04:11:52.300Z,8.27
2018-05-03T04:14:19.874Z,7.50
2018-05-03T04:16:47.428Z,7.73
2018-05-03T04:19:26.706Z,7.23
2018-05-03T04:22:06.098Z,7.13
2018-05-03T04:24:45.355Z,6.17
2018-05-03T04:27:12.916Z,12.33
2018-05-03T04:29:40.546Z,8.23
2018-05-03T04:32:08.161Z,7.07
2018-05-03T04:34:35.785Z,7.23
2018-05-03T04:37:03.371Z,12.37
2018-05-03T04:39:31.886Z,11.33
2018-05-03T04:41:59.456Z,6.87
2018-05-03T04:44:27.018Z,6.97
2018-05-03T04:46:54.668Z,5.57
2018-05-03T04:49:22.239Z,6.40
2018-05-03T04:51:49.909Z,5.70
2018-05-03T04:54:17.599Z,5.37
2018-05-03T04:56:45.125Z,5.53
2018-05-03T04:59:12.693Z,5.43
2018-05-03T05:01:40.249Z,4.93
2018-05-03T05:04:07.895Z,5.27
2018-05-03T05:06:35.521Z,5.90
2018-05-03T05:09:03.176Z,6.30
2018-05-03T05:11:30.737Z,6.03
2018-05-03T05:13:58.302Z,6.70
2018-05-03T05:16:25.868Z,4.50
2018-05-03T05:18:53.428Z,5.90
2018-05-03T05:21:21.056Z,5.63
2018-05-03T05:23:48.622Z,5.03
2018-05-03T05:26:16.338Z,5.63
2018-05-03T05:28:43.957Z,5.00
2018-05-03T05:31:11.509Z,5.00
2018-05-03T05:33:39.133Z,5.10
2018-05-03T05:36:06.745Z,4.47
2018-05-03T05:38:34.403Z,4.70
2018-05-03T05:41:02.021Z,5.33
2018-05-03T05:43:29.631Z,4.03
2018-05-03T05:45:57.248Z,4.23
2018-05-03T05:48:24.865Z,4.33
2018-05-03T05:50:52.432Z,5.00
2018-05-03T05:53:20.029Z,5.03
2018-05-03T05:55:47.655Z,4.17
2018-05-03T05:58:15.212Z,5.40
2018-05-03T06:00:42.893Z,5.97
2018-05-03T06:03:10.517Z,5.20
2018-05-03T06:05:38.069Z,4.50
2018-05-03T06:08:05.635Z,4.00
2018-05-03T06:10:33.185Z,5.17
2018-05-03T06:13:00.813Z,5.17
2018-05-03T06:15:28.371Z,5.03
2018-05-03T06:17:56.040Z,4.93
2018-05-03T06:20:23.616Z,5.07
2018-05-03T06:22:51.265Z,5.70
2018-05-03T06:25:18.889Z,4.70
2018-05-03T06:27:46.452Z,5.83
2018-05-03T06:30:14.078Z,5.80
2018-05-03T06:32:41.633Z,6.00
2018-05-03T06:35:09.262Z,6.63
2018-05-03T06:37:36.805Z,4.63
2018-05-03T06:40:04.377Z,5.90
2018-05-03T06:42:31.944Z,5.80
2018-05-03T06:44:59.555Z,5.70
2018-05-03T06:47:27.185Z,5.07
2018-05-03T06:49:54.724Z,4.80
2018-05-03T06:52:22.339Z,5.17
2018-05-03T06:54:49.892Z,4.70
2018-05-03T06:57:17.439Z,5.20
2018-05-03T06:59:45.061Z,5.13
2018-05-03T07:02:12.615Z,5.40
2018-05-03T07:04:40.180Z,4.87
2018-05-03T07:07:07.740Z,4.67
2018-05-03T07:09:35.413Z,4.17
2018-05-03T07:12:03.013Z,5.07
2018-05-03T07:14:30.564Z,4.63
2018-05-03T07:16:58.169Z,4.40
2018-05-03T07:19:25.786Z,5.17
2018-05-03T07:21:53.419Z,5.00
2018-05-03T07:24:20.994Z,3.77
2018-05-03T07:26:48.563Z,5.40
2018-05-03T07:29:16.187Z,4.80
2018-05-03T07:31:43.716Z,5.20
2018-05-03T07:34:11.351Z,5.83
2018-05-03T07:36:38.903Z,4.60
2018-05-03T07:39:06.511Z,5.17
2018-05-03T07:41:34.070Z,4.80
2018-05-03T07:44:01.629Z,4.27
2018-05-03T07:46:29.197Z,4.47
2018-05-03T07:48:56.821Z,4.97
2018-05-03T07:51:24.388Z,4.80
2018-05-03T07:53:51.949Z,5.33
2018-05-03T07:56:19.559Z,4.70
2018-05-03T07:58:47.116Z,5.27
2018-05-03T08:01:14.676Z,5.13
2018-05-03T08:03:42.252Z,4.80
2018-05-03T08:06:09.816Z,4.67
2018-05-03T08:08:37.380Z,4.83
2018-05-03T08:11:04.946Z,5.17
2018-05-03T08:13:32.589Z,4.70
2018-05-03T08:16:00.148Z,4.83
2018-05-03T08:18:27.808Z,5.67
2018-05-03T08:20:55.373Z,5.63
2018-05-03T08:23:22.937Z,6.27
2018-05-03T08:25:50.496Z,5.50
2018-05-03T08:28:18.048Z,4.77
2018-05-03T08:30:45.676Z,5.47
2018-05-03T08:33:13.233Z,5.50
2018-05-03T08:35:40.845Z,5.50
2018-05-03T08:38:08.473Z,4.60
2018-05-03T08:40:36.033Z,5.17
2018-05-03T08:43:03.661Z,5.10
2018-05-03T08:45:31.290Z,5.90
2018-05-03T08:47:58.958Z,5.47
2018-05-03T08:50:26.512Z,5.27
2018-05-03T08:52:54.076Z,5.77
2018-05-03T08:55:21.698Z,4.73
2018-05-03T08:57:49.264Z,6.27
2018-05-03T09:00:16.836Z,5.37
2018-05-03T09:02:44.398Z,5.70
2018-05-03T09:05:12.057Z,5.00
2018-05-03T09:07:39.705Z,4.60
2018-05-03T09:10:07.288Z,5.37
2018-05-03T09:12:34.853Z,5.30
2018-05-03T09:15:02.477Z,5.03
2018-05-03T09:17:30.118Z,5.23
2018-05-03T09:19:57.737Z,5.13
2018-05-03T09:22:25.456Z,4.60
2018-05-03T09:24:52.964Z,4.77
2018-05-03T09:27:20.540Z,4.73
2018-05-03T09:29:48.134Z,5.23
2018-05-03T09:32:15.754Z,5.67
2018-05-03T09:34:43.341Z,4.17
2018-05-03T09:37:10.901Z,4.83
2018-05-03T09:39:38.456Z,4.57
2018-05-03T09:42:06.030Z,4.30
2018-05-03T09:44:33.709Z,4.97
2018-05-03T09:47:01.403Z,5.27
2018-05-03T09:49:28.978Z,4.63
2018-05-03T09:51:56.598Z,4.77
2018-05-03T09:54:24.222Z,5.17
2018-05-03T09:56:51.766Z,4.47
2018-05-03T09:59:19.346Z,3.60
2018-05-03T10:01:46.978Z,5.23
2018-05-03T10:04:15.109Z,4.90
2018-05-03T10:06:42.662Z,3.50
2018-05-03T10:09:10.302Z,4.27
2018-05-03T10:11:37.925Z,4.60
2018-05-03T10:14:05.486Z,5.03
2018-05-03T10:16:33.048Z,5.07
2018-05-03T10:19:00.678Z,4.90
2018-05-03T10:21:28.292Z,5.03
2018-05-03T10:23:55.912Z,4.30
2018-05-03T10:26:23.529Z,4.50
2018-05-03T10:28:51.109Z,4.70
2018-05-03T10:31:18.649Z,4.07
2018-05-03T10:33:46.273Z,4.30
2018-05-03T10:36:13.959Z,3.90
2018-05-03T10:38:41.541Z,3.73
2018-05-03T10:41:09.100Z,4.80
2018-05-03T10:43:36.745Z,3.80
2018-05-03T10:46:04.345Z,3.83
2018-05-03T10:48:31.916Z,4.10
2018-05-03T10:50:59.484Z,4.00
2018-05-03T10:53:27.121Z,4.10
2018-05-03T10:55:54.676Z,2.80
2018-05-03T10:58:22.253Z,3.33
2018-05-03T11:00:49.808Z,3.90
2018-05-03T11:03:17.488Z,4.30
2018-05-03T11:05:45.068Z,4.17
2018-05-03T11:08:12.785Z,4.37
2018-05-03T11:10:40.345Z,3.78
2018-05-03T11:13:07.903Z,3.40
2018-05-03T11:15:35.469Z,4.05
2018-05-03T11:18:03.020Z,3.62
2018-05-03T11:20:30.597Z,3.17
2018-05-03T11:22:58.216Z,3.78
2018-05-03T11:25:25.902Z,3.72
2018-05-03T11:27:53.556Z,3.35
2018-05-03T11:30:21.116Z,3.30
2018-05-03T11:32:48.696Z,4.03
2018-05-03T11:35:16.263Z,4.10
2018-05-03T11:37:43.893Z,3.35
2018-05-03T11:40:11.461Z,2.78
2018-05-03T11:42:39.182Z,2.78
2018-05-03T11:45:06.717Z,3.95
2018-05-03T11:47:34.329Z,3.10
2018-05-03T11:50:01.953Z,2.72
2018-05-03T11:52:29.512Z,3.12
2018-05-03T11:54:57.137Z,3.53
2018-05-03T11:57:24.782Z,2.70
2018-05-03T11:59:52.392Z,3.40
2018-05-03T12:02:19.949Z,2.87
2018-05-03T12:04:47.569Z,3.08
2018-05-03T12:07:15.132Z,3.20
2018-05-03T12:09:42.684Z,3.10
2018-05-03T12:12:10.245Z,3.58
2018-05-03T12:14:37.807Z,2.65
2018-05-03T12:17:05.480Z,3.75
2018-05-03T12:19:33.055Z,3.00
2018-05-03T12:22:00.623Z,3.22
2018-05-03T12:24:28.229Z,2.65
2018-05-03T12:26:55.780Z,2.70
2018-05-03T12:29:23.405Z,3.22
2018-05-03T12:31:50.952Z,2.78
2018-05-03T12:34:18.569Z,2.53
2018-05-03T12:36:46.128Z,2.50
2018-05-03T12:39:13.684Z,2.80
2018-05-03T12:41:41.245Z,2.70
2018-05-03T12:44:08.863Z,2.83
2018-05-03T12:46:36.424Z,2.30
2018-05-03T12:49:03.984Z,3.55
2018-05-03T12:51:31.668Z,2.22
2018-05-03T12:53:59.238Z,3.60
2018-05-03T12:56:26.800Z,2.40
2018-05-03T12:58:54.380Z,3.10
2018-05-03T13:01:21.936Z,2.60
2018-05-03T13:03:49.552Z,2.90
2018-05-03T13:06:17.112Z,2.42
2018-05-03T13:08:44.672Z,2.00
2018-05-03T13:11:12.247Z,2.33
2018-05-03T13:13:39.804Z,2.95
2018-05-03T13:16:07.373Z,2.92
2018-05-03T13:18:34.916Z,2.83
2018-05-03T13:21:02.528Z,2.62
2018-05-03T13:23:30.100Z,3.55
2018-05-03T13:25:57.722Z,3.33
2018-05-03T13:28:25.292Z,3.72
2018-05-03T13:30:52.857Z,3.35
2018-05-03T13:33:20.424Z,3.47
2018-05-03T13:35:47.985Z,3.20
2018-05-03T13:38:15.605Z,3.53
2018-05-03T13:40:43.264Z,3.73
2018-05-03T13:43:10.888Z,3.50
2018-05-03T13:45:38.432Z,3.67
2018-05-03T13:48:06.021Z,3.85
2018-05-03T13:50:33.589Z,3.22
2018-05-03T13:53:01.144Z,3.42
2018-05-03T13:55:28.860Z,3.08
2018-05-03T13:57:56.417Z,3.90
2018-05-03T14:00:24.041Z,3.80
2018-05-03T14:02:51.624Z,4.30
2018-05-03T14:05:19.254Z,3.80
2018-05-03T14:07:46.820Z,4.73
2018-05-03T14:10:14.375Z,5.00
2018-05-03T14:12:42.064Z,5.87
2018-05-03T14:15:09.694Z,5.17
2018-05-03T14:17:37.252Z,5.80
2018-05-03T14:20:04.849Z,5.10
2018-05-03T14:22:32.420Z,6.03
2018-05-03T14:25:00.003Z,5.23
2018-05-03T14:27:27.561Z,5.73
2018-05-03T14:29:55.186Z,6.40
2018-05-03T14:32:22.740Z,6.00
2018-05-03T14:34:50.301Z,6.67
2018-05-03T14:37:17.942Z,5.10
2018-05-03T14:39:45.500Z,5.30
2018-05-03T14:42:13.069Z,5.43
2018-05-03T14:44:40.629Z,5.50
2018-05-03T14:47:08.266Z,5.73
2018-05-03T14:49:35.805Z,5.83
2018-05-03T14:52:03.360Z,5.17
2018-05-03T14:54:30.925Z,5.20
2018-05-03T14:56:58.504Z,6.57
2018-05-03T14:59:26.068Z,5.33
2018-05-03T15:01:53.629Z,5.43
2018-05-03T15:04:21.244Z,5.23
2018-05-03T15:06:48.805Z,5.57
2018-05-03T15:09:16.376Z,6.37
2018-05-03T15:11:43.965Z,6.50
2018-05-03T15:14:11.546Z,5.60
2018-05-03T15:16:39.090Z,5.70
2018-05-03T15:19:06.709Z,5.10
2018-05-03T15:21:34.429Z,4.93
2018-05-03T15:24:01.989Z,5.47
2018-05-03T15:26:29.610Z,5.30
2018-05-03T15:28:57.184Z,5.90
2018-05-03T15:31:24.741Z,6.10
2018-05-03T15:33:52.450Z,6.40
2018-05-03T15:36:19.972Z,5.13
2018-05-03T15:38:53.120Z,6.10
2018-05-03T15:41:20.670Z,6.33
2018-05-03T15:43:48.270Z,5.37
2018-05-03T15:46:15.837Z,5.87
2018-05-03T15:48:43.397Z,6.40
2018-05-03T15:51:11.022Z,4.47
2018-05-03T15:53:38.588Z,5.70
2018-05-03T15:56:06.220Z,5.50
2018-05-03T15:58:33.805Z,5.97
2018-05-03T16:01:01.364Z,5.83
2018-05-03T16:03:28.955Z,5.70
2018-05-03T16:05:56.515Z,5.47
2018-05-03T16:08:24.089Z,5.87
2018-05-03T16:10:51.710Z,5.33
2018-05-03T16:13:19.324Z,5.30
2018-05-03T16:15:46.900Z,5.87
2018-05-03T16:18:14.470Z,5.80
2018-05-03T16:20:42.043Z,6.37
2018-05-03T16:23:09.590Z,5.37
2018-05-03T16:25:37.161Z,5.67
2018-05-03T16:28:04.720Z,5.43
2018-05-03T16:30:32.398Z,5.83
2018-05-03T16:32:59.956Z,6.90
2018-05-03T16:35:27.601Z,8.53
2018-05-03T16:37:55.177Z,6.87
2018-05-03T16:40:22.746Z,6.43
2018-05-03T16:42:50.318Z,7.53
2018-05-03T16:45:17.872Z,7.87
2018-05-03T16:47:45.455Z,8.33
2018-05-03T16:50:13.025Z,8.27
2018-05-03T16:52:40.584Z,7.03
2018-05-03T16:55:08.160Z,6.63
2018-05-03T16:57:35.720Z,6.00
2018-05-03T17:00:03.339Z,6.70
2018-05-03T17:02:30.960Z,4.87
2018-05-03T17:04:58.579Z,6.50
2018-05-03T17:07:26.209Z,6.63
2018-05-03T17:09:53.751Z,5.80
2018-05-03T17:12:21.412Z,6.70
2018-05-03T17:14:48.976Z,5.90
2018-05-03T17:17:16.649Z,6.17
2018-05-03T17:19:44.208Z,6.70
2018-05-03T17:22:11.767Z,7.93
2018-05-03T17:24:39.342Z,6.13
2018-05-03T17:27:06.925Z,5.73
2018-05-03T17:29:34.497Z,6.37
2018-05-03T17:32:02.113Z,5.40
2018-05-03T17:34:29.728Z,6.40
2018-05-03T17:36:57.349Z,5.70
2018-05-03T17:39:24.932Z,8.80
2018-05-03T17:41:52.525Z,7.43
2018-05-03T17:44:20.215Z,10.10
2018-05-03T17:46:47.784Z,6.63
2018-05-03T17:49:15.336Z,6.83
2018-05-03T17:51:42.953Z,7.30
2018-05-03T17:54:10.512Z,6.10
2018-05-03T17:56:38.080Z,7.00
2018-05-03T17:59:05.644Z,5.97
2018-05-03T18:01:33.229Z,7.00
2018-05-03T18:04:00.797Z,7.27
2018-05-03T18:06:28.353Z,7.30
2018-05-03T18:08:56.033Z,7.27
2018-05-03T18:11:23.596Z,5.80
2018-05-03T18:13:51.217Z,8.10
2018-05-03T18:16:18.796Z,6.27
2018-05-03T18:18:46.360Z,6.90
2018-05-03T18:21:13.935Z,6.90
2018-05-03T18:23:41.561Z,7.17
2018-05-03T18:26:09.216Z,7.40
2018-05-03T18:28:36.781Z,7.37
2018-05-03T18:31:04.344Z,7.30
2018-05-03T18:33:31.973Z,6.73
2018-05-03T18:35:59.592Z,7.70
2018-05-03T18:38:27.226Z,7.33
2018-05-03T18:40:54.796Z,7.67
2018-05-03T18:43:22.409Z,6.83
2018-05-03T18:45:49.976Z,6.67
2018-05-03T18:48:17.615Z,6.53
2018-05-03T18:50:45.250Z,7.40
2018-05-03T18:53:12.818Z,6.70
2018-05-03T18:55:40.379Z,9.83
2018-05-03T18:58:07.984Z,7.70
2018-05-03T19:00:35.544Z,7.10
2018-05-03T19:03:03.133Z,7.80
2018-05-03T19:05:30.688Z,7.10
2018-05-03T19:07:58.318Z,6.67
2018-05-03T19:10:25.880Z,7.30
2018-05-03T19:12:53.497Z,7.27
2018-05-03T19:15:21.126Z,8.10
2018-05-03T19:17:48.816Z,7.87
2018-05-03T19:20:16.398Z,7.33
2018-05-03T19:22:44.018Z,7.90
2018-05-03T19:25:11.639Z,8.50
2018-05-03T19:27:39.278Z,8.13
2018-05-03T19:30:06.895Z,8.20
2018-05-03T19:32:34.456Z,8.03
2018-05-03T19:35:02.073Z,7.70
2018-05-03T19:37:29.701Z,6.67
2018-05-03T19:39:57.262Z,8.67
2018-05-03T19:42:24.876Z,7.97
2018-05-03T19:44:52.503Z,7.73
2018-05-03T19:47:20.061Z,6.73
2018-05-03T19:49:47.629Z,8.03
2018-05-03T19:52:15.220Z,7.70
2018-05-03T19:54:42.849Z,7.43
2018-05-03T19:57:10.422Z,8.00
2018-05-03T19:59:38.037Z,7.10
2018-05-03T20:02:05.614Z,7.13
2018-05-03T20:04:33.174Z,6.20
2018-05-03T20:07:00.747Z,7.97
2018-05-03T20:09:28.373Z,8.73
2018-05-03T20:11:55.944Z,6.77
2018-05-03T20:14:23.499Z,8.07
2018-05-03T20:16:51.129Z,7.40
2018-05-03T20:19:18.752Z,6.73
2018-05-03T20:21:46.370Z,7.80
2018-05-03T20:24:13.945Z,8.20
2018-05-03T20:26:41.505Z,8.07
2018-05-03T20:29:09.077Z,7.10
2018-05-03T20:31:36.645Z,6.40
2018-05-03T20:34:04.264Z,7.30
2018-05-03T20:36:31.887Z,7.30
2018-05-03T20:38:59.499Z,7.93
2018-05-03T20:41:27.060Z,7.53
2018-05-03T20:43:54.692Z,7.73
2018-05-03T20:46:22.264Z,7.00
2018-05-03T20:48:49.829Z,7.17
2018-05-03T20:51:17.470Z,6.87
2018-05-03T20:53:45.040Z,7.00
2018-05-03T20:56:12.609Z,8.63
2018-05-03T20:58:40.244Z,6.73
2018-05-03T21:01:07.866Z,8.20
2018-05-03T21:03:35.433Z,7.87
2018-05-03T21:06:02.992Z,7.70
2018-05-03T21:08:30.679Z,7.83
2018-05-03T21:10:58.236Z,6.70
2018-05-03T21:13:25.856Z,7.40
2018-05-03T21:15:53.442Z,7.37
2018-05-03T21:18:21.008Z,8.10
2018-05-03T21:20:48.585Z,8.00
2018-05-03T21:23:16.158Z,7.73
2018-05-03T21:25:43.776Z,7.17
2018-05-03T21:28:11.322Z,8.67
2018-05-03T21:30:38.887Z,7.93
2018-05-03T21:33:06.479Z,7.40
2018-05-03T21:35:34.047Z,7.13
2018-05-03T21:38:01.617Z,8.60
2018-05-03T21:40:29.241Z,8.13
2018-05-03T21:42:56.869Z,7.50
2018-05-03T21:45:24.429Z,8.10
2018-05-03T21:47:51.985Z,7.80
2018-05-03T21:50:19.552Z,7.97
2018-05-03T21:52:47.119Z,7.30
2018-05-03T21:55:14.745Z,8.03
2018-05-03T21:57:42.368Z,8.43
2018-05-03T22:00:10.041Z,6.63
2018-05-03T22:02:37.600Z,7.50
2018-05-03T22:05:05.166Z,5.87
2018-05-03T22:07:32.804Z,7.20
2018-05-03T22:10:00.365Z,7.30
2018-05-03T22:12:28.029Z,7.33
2018-05-03T22:14:55.588Z,7.60
2018-05-03T22:17:23.164Z,8.07
2018-05-03T22:19:50.733Z,7.33
2018-05-03T22:22:18.320Z,6.53
2018-05-03T22:24:45.896Z,6.97
2018-05-03T22:27:13.528Z,7.93
2018-05-03T22:29:41.160Z,7.30
2018-05-03T22:32:08.762Z,7.83
2018-05-03T22:34:36.320Z,6.90
2018-05-03T22:37:03.944Z,7.33
2018-05-03T22:39:31.562Z,7.57
2018-05-03T22:41:59.151Z,7.53
2018-05-03T22:44:26.780Z,6.80
2018-05-03T22:46:54.474Z,7.80
2018-05-03T22:49:22.131Z,8.13
2018-05-03T22:51:49.793Z,7.23
2018-05-03T22:54:17.368Z,6.43
2018-05-03T22:56:44.977Z,7.87
2018-05-03T22:59:12.552Z,7.57
2018-05-03T23:01:40.120Z,7.33
2018-05-03T23:04:07.801Z,7.10
2018-05-03T23:06:35.356Z,8.20
2018-05-03T23:09:02.982Z,8.13
2018-05-03T23:11:30.626Z,8.23
2018-05-03T23:13:58.296Z,7.27
2018-05-03T23:16:25.869Z,7.50
2018-05-03T23:18:53.432Z,8.17
2018-05-03T23:21:21.045Z,7.17
2018-05-03T23:23:48.609Z,6.60
2018-05-03T23:26:16.168Z,7.57
2018-05-03T23:28:43.796Z,6.47
2018-05-03T23:31:11.357Z,6.73
2018-05-03T23:36:12.698Z,6.80
2018-05-03T23:38:40.344Z,6.60
2018-05-03T23:41:07.904Z,6.60
2018-05-03T23:43:35.464Z,7.30
2018-05-03T23:46:03.088Z,7.90
2018-05-03T23:48:30.709Z,7.47
2018-05-03T23:50:58.334Z,8.13
2018-05-03T23:53:25.876Z,7.70
2018-05-03T23:55:53.584Z,7.50
2018-05-03T23:58:21.168Z,6.87
